Time;durP1;ratioP1;P1;durP2;ratioP2;P2;SDS_P1;SDS_P2;PMS_P1;PMS_P2;Temp;Humidity;BMP_temperature;BMP_pressure;BME280_temperature;BME280_humidity;BME280_pressure;Samples;Min_cycle;Max_cycle;Signal;HPM_P1;HPM_P2
2021/12/02 00:01:53;;;;;;;13.27;1.80;;;3.60;99.90;;;;;;5015933;28;20696;-67
2021/12/02 00:04:19;;;;;;;3.22;1.15;;;3.50;99.90;;;;;;4998485;28;20068;-66
2021/12/02 00:06:44;;;;;;;7.65;1.95;;;3.40;99.90;;;;;;4999395;28;20068;-67
2021/12/02 00:09:10;;;;;;;9.85;1.30;;;3.40;99.90;;;;;;5016159;28;20049;-66
2021/12/02 00:11:36;;;;;;;5.28;1.55;;;3.40;99.90;;;;;;5016397;28;20132;-66
2021/12/02 00:14:08;;;;;;;10.25;2.10;;;3.30;99.90;;;;;;5016150;28;20049;-67
2021/12/02 00:16:51;;;;;;;10.07;2.10;;;3.30;99.90;;;;;;5015727;28;20085;-67
2021/12/02 00:22:03;;;;;;;7.05;1.50;;;3.20;99.90;;;;;;5016127;28;20378;-69
2021/12/02 00:24:35;;;;;;;7.18;1.75;;;3.20;99.90;;;;;;5015401;28;20057;-65
2021/12/02 00:27:05;;;;;;;13.48;2.00;;;3.00;99.90;;;;;;5014499;28;20497;-68
2021/12/02 00:29:32;;;;;;;5.72;1.48;;;3.00;99.90;;;;;;5015476;28;20042;-68
2021/12/02 00:32:04;;;;;;;6.22;1.30;;;2.90;99.90;;;;;;5001262;28;20045;-66
2021/12/02 00:34:30;;;;;;;6.50;1.77;;;2.90;99.90;;;;;;5018483;28;20206;-67
2021/12/02 00:36:57;;;;;;;10.73;2.20;;;2.80;99.90;;;;;;4998722;28;20493;-66
2021/12/02 00:39:23;;;;;;;10.50;1.80;;;2.80;99.90;;;;;;5015499;28;20065;-69
2021/12/02 00:41:49;;;;;;;8.27;1.80;;;2.80;99.90;;;;;;5015354;28;20385;-69
2021/12/02 00:44:18;;;;;;;8.07;1.42;;;2.70;99.90;;;;;;4998516;28;20053;-68
2021/12/02 00:46:45;;;;;;;11.05;1.90;;;2.70;99.90;;;;;;5015520;28;20077;-66
2021/12/02 00:49:14;;;;;;;13.77;1.77;;;2.70;99.90;;;;;;5015520;28;20057;-67
2021/12/02 00:51:41;;;;;;;9.73;1.77;;;2.70;99.90;;;;;;4998336;28;20105;-67
2021/12/02 00:54:09;;;;;;;12.25;2.50;;;2.60;99.90;;;;;;4997673;28;20064;-66
2021/12/02 00:56:35;;;;;;;8.98;2.10;;;2.60;99.90;;;;;;4997915;28;20049;-66
2021/12/02 00:59:01;;;;;;;9.10;2.63;;;2.60;99.90;;;;;;5015267;28;20038;-67
2021/12/02 01:01:33;;;;;;;7.72;1.80;;;2.60;99.90;;;;;;4998247;28;20200;-68
2021/12/02 01:04:00;;;;;;;10.18;1.90;;;2.50;99.90;;;;;;5015259;28;20120;-67
2021/12/02 01:06:27;;;;;;;12.07;1.88;;;2.60;99.90;;;;;;5015149;28;20434;-68
2021/12/02 01:08:53;;;;;;;9.45;1.67;;;2.60;99.90;;;;;;4997387;28;20045;-67
2021/12/02 01:11:19;;;;;;;7.18;1.70;;;2.70;99.90;;;;;;4998106;28;20145;-68
2021/12/02 01:13:46;;;;;;;14.68;1.95;;;2.70;99.90;;;;;;5014890;28;20117;-67
2021/12/02 01:16:12;;;;;;;9.73;1.98;;;2.80;99.90;;;;;;4998110;28;20116;-67
2021/12/02 01:18:38;;;;;;;12.93;1.83;;;2.70;99.90;;;;;;4998167;28;20462;-67
2021/12/02 01:21:04;;;;;;;14.80;2.13;;;2.70;99.90;;;;;;4997606;28;20042;-67
2021/12/02 01:23:32;;;;;;;9.10;1.70;;;2.70;99.90;;;;;;5014621;28;20041;-67
2021/12/02 01:26:04;;;;;;;8.27;1.58;;;2.70;99.90;;;;;;5015017;28;20085;-68
2021/12/02 01:28:30;;;;;;;5.82;1.92;;;2.70;99.90;;;;;;4978618;28;20046;-66
2021/12/02 01:30:56;;;;;;;11.32;1.90;;;2.70;99.90;;;;;;5008496;28;20053;-67
2021/12/02 01:33:26;;;;;;;9.68;1.85;;;2.70;99.90;;;;;;4990054;28;20078;-67
2021/12/02 01:35:59;;;;;;;8.25;1.73;;;2.80;99.90;;;;;;4997548;28;20073;-69
2021/12/02 01:38:27;;;;;;;6.03;1.20;;;2.90;99.90;;;;;;5016665;28;20358;-66
2021/12/02 01:40:55;;;;;;;6.95;1.33;;;3.10;99.90;;;;;;5018851;28;20057;-67
2021/12/02 01:43:32;;;;;;;6.00;1.45;;;3.20;99.90;;;;;;5001579;28;20092;-67
2021/12/02 01:45:58;;;;;;;5.97;1.25;;;3.40;99.90;;;;;;5018658;28;20046;-66
2021/12/02 01:48:25;;;;;;;3.45;1.17;;;3.40;99.90;;;;;;5001056;28;20187;-66
2021/12/02 01:51:03;;;;;;;5.28;1.20;;;3.30;99.90;;;;;;5001711;28;20046;-68
2021/12/02 01:53:36;;;;;;;2.72;1.10;;;3.30;99.90;;;;;;5001178;28;20130;-67
2021/12/02 01:56:14;;;;;;;6.38;1.17;;;3.30;99.90;;;;;;5018736;28;20049;-67
2021/12/02 01:58:46;;;;;;;7.60;1.10;;;3.30;99.90;;;;;;5018305;28;20046;-68
2021/12/02 02:01:23;;;;;;;5.55;1.27;;;3.30;99.90;;;;;;5018780;28;20399;-66
2021/12/02 02:03:51;;;;;;;6.25;1.10;;;3.20;99.90;;;;;;5001278;28;20065;-66
2021/12/02 02:06:42;;;;;;;3.95;1.10;;;3.20;99.90;;;;;;5001686;28;20118;-67
2021/12/02 02:09:09;;;;;;;6.18;1.02;;;3.20;99.90;;;;;;5013926;28;20069;-66
2021/12/02 02:11:35;;;;;;;7.60;1.65;;;3.10;99.90;;;;;;5018363;28;20355;-68
2021/12/02 02:14:01;;;;;;;5.72;1.13;;;3.10;99.90;;;;;;5000961;28;20057;-66
2021/12/02 02:16:28;;;;;;;6.10;1.33;;;3.10;99.90;;;;;;5000499;28;20422;-66
2021/12/02 02:18:54;;;;;;;10.88;1.40;;;3.10;99.90;;;;;;5000986;28;20123;-69
2021/12/02 02:21:22;;;;;;;8.77;1.35;;;3.10;99.90;;;;;;5018317;28;20073;-68
2021/12/02 02:23:56;;;;;;;3.28;1.10;;;3.10;99.90;;;;;;5018192;28;20046;-69
2021/12/02 02:26:26;;;;;;;5.47;1.30;;;3.00;99.90;;;;;;5017988;28;20396;-68
2021/12/02 02:28:52;;;;;;;7.32;1.23;;;3.00;99.90;;;;;;5000840;28;20123;-67
2021/12/02 02:31:18;;;;;;;5.88;1.38;;;2.90;99.90;;;;;;5001877;28;20462;-66
2021/12/02 02:33:48;;;;;;;8.40;1.80;;;2.90;99.90;;;;;;5002827;28;20478;-66
2021/12/02 02:36:15;;;;;;;5.20;1.38;;;2.80;99.90;;;;;;5000434;28;20050;-67
2021/12/02 02:38:41;;;;;;;5.97;1.20;;;2.80;99.90;;;;;;5017644;28;20128;-67
2021/12/02 02:41:09;;;;;;;6.47;1.25;;;2.80;99.90;;;;;;5001003;28;20445;-68
2021/12/02 02:43:35;;;;;;;7.47;1.50;;;2.70;99.90;;;;;;5000728;28;20458;-67
2021/12/02 02:46:01;;;;;;;6.85;1.20;;;2.70;99.90;;;;;;5017833;28;20446;-66
2021/12/02 02:48:27;;;;;;;5.60;1.33;;;2.70;99.90;;;;;;5000188;28;20125;-67
2021/12/02 02:50:52;;;;;;;9.52;1.25;;;2.70;99.90;;;;;;4999330;28;20069;-66
2021/12/02 02:53:24;;;;;;;11.95;1.25;;;2.70;99.90;;;;;;5017437;28;20116;-67
2021/12/02 02:56:01;;;;;;;7.05;1.33;;;2.70;99.90;;;;;;5017665;28;20085;-68
2021/12/02 02:58:39;;;;;;;3.92;1.00;;;2.70;99.90;;;;;;5017587;28;20378;-68
2021/12/02 03:01:16;;;;;;;5.30;1.10;;;2.70;99.90;;;;;;5000072;28;20049;-66
2021/12/02 03:03:55;;;;;;;5.00;1.23;;;2.80;99.90;;;;;;4997077;28;20046;-66
2021/12/02 03:06:30;;;;;;;8.63;1.30;;;2.80;99.90;;;;;;5000261;28;20458;-68
2021/12/02 03:09:09;;;;;;;4.95;1.25;;;2.80;99.90;;;;;;5017225;28;20045;-68
2021/12/02 03:11:50;;;;;;;7.72;1.38;;;2.90;99.90;;;;;;4999728;28;20046;-65
2021/12/02 03:14:22;;;;;;;9.07;1.45;;;2.90;99.90;;;;;;4983609;28;20046;-68
2021/12/02 03:16:48;;;;;;;8.95;1.60;;;2.90;99.90;;;;;;5017255;28;20415;-66
2021/12/02 03:19:31;;;;;;;4.88;1.15;;;2.90;99.90;;;;;;5000355;28;20140;-66
2021/12/02 03:21:57;;;;;;;6.38;1.23;;;3.00;99.90;;;;;;4987125;28;20382;-67
2021/12/02 03:24:24;;;;;;;4.18;1.30;;;3.00;99.90;;;;;;5016855;28;20099;-68
2021/12/02 03:26:50;;;;;;;6.15;1.30;;;3.10;99.90;;;;;;5004057;28;20050;-67
2021/12/02 03:29:16;;;;;;;7.57;1.38;;;3.10;99.90;;;;;;4999816;28;20054;-68
2021/12/02 03:31:42;;;;;;;9.05;1.40;;;3.10;99.90;;;;;;5020815;28;20045;-67
2021/12/02 03:34:09;;;;;;;4.20;1.10;;;3.20;99.90;;;;;;4989950;28;20064;-68
2021/12/02 03:36:36;;;;;;;6.93;1.27;;;3.20;99.90;;;;;;4999670;28;20112;-67
2021/12/02 03:39:04;;;;;;;2.45;1.00;;;3.20;99.90;;;;;;5016845;28;20366;-67
2021/12/02 03:41:31;;;;;;;7.38;1.42;;;3.20;99.90;;;;;;4999459;28;20387;-68
2021/12/02 03:43:56;;;;;;;4.70;1.20;;;3.10;99.90;;;;;;4999524;28;20378;-67
2021/12/02 03:46:24;;;;;;;4.03;1.25;;;3.10;99.90;;;;;;5016934;28;20037;-67
2021/12/02 03:48:51;;;;;;;2.30;1.13;;;3.00;99.90;;;;;;5016422;28;20049;-69
2021/12/02 03:51:17;;;;;;;6.10;1.38;;;2.90;99.90;;;;;;4998779;28;20128;-66
2021/12/02 03:53:44;;;;;;;4.10;1.27;;;2.90;99.90;;;;;;4998867;28;20132;-66
2021/12/02 03:56:11;;;;;;;8.40;1.30;;;2.80;99.90;;;;;;4999580;28;20054;-67
2021/12/02 03:58:38;;;;;;;2.65;1.10;;;2.70;99.90;;;;;;5016282;28;20074;-67
2021/12/02 04:01:05;;;;;;;5.43;1.25;;;2.60;99.90;;;;;;4998951;28;20056;-69
2021/12/02 04:03:31;;;;;;;7.38;1.20;;;2.50;99.90;;;;;;4998486;28;20072;-68
2021/12/02 04:05:57;;;;;;;2.78;1.13;;;2.50;99.90;;;;;;4998931;28;20053;-67
2021/12/02 04:08:29;;;;;;;3.25;0.88;;;2.40;99.90;;;;;;4999561;28;20479;-68
2021/12/02 04:11:09;;;;;;;4.40;1.00;;;2.40;99.90;;;;;;5016087;28;20083;-69
2021/12/02 04:13:35;;;;;;;7.18;1.20;;;2.30;99.90;;;;;;5015968;28;20038;-66
2021/12/02 04:16:04;;;;;;;3.72;1.20;;;2.30;99.90;;;;;;4998804;28;20072;-68
2021/12/02 04:18:29;;;;;;;3.38;1.08;;;2.30;99.90;;;;;;4999338;28;20058;-67
2021/12/02 04:20:55;;;;;;;2.30;1.20;;;2.30;99.90;;;;;;5023928;28;20060;-67
2021/12/02 04:23:20;;;;;;;3.47;1.17;;;2.20;99.90;;;;;;5016021;28;20093;-67
2021/12/02 04:25:46;;;;;;;12.00;1.30;;;2.20;99.90;;;;;;4998860;28;20054;-68
2021/12/02 04:28:12;;;;;;;5.00;1.20;;;2.30;99.90;;;;;;4998208;28;20046;-66
2021/12/02 04:30:37;;;;;;;6.35;1.40;;;2.10;99.90;;;;;;4998612;28;20041;-67
2021/12/02 04:33:03;;;;;;;4.72;1.35;;;2.10;99.90;;;;;;5002021;28;20069;-69
2021/12/02 04:35:28;;;;;;;8.10;1.70;;;2.00;99.90;;;;;;5007201;28;20041;-66
2021/12/02 04:37:54;;;;;;;5.38;1.55;;;2.00;99.90;;;;;;5016696;28;20046;-67
2021/12/02 04:40:21;;;;;;;8.52;1.45;;;1.90;99.90;;;;;;4998849;28;20113;-67
2021/12/02 04:42:49;;;;;;;8.82;1.60;;;1.80;99.90;;;;;;4998541;28;20053;-69
2021/12/02 04:45:14;;;;;;;4.80;1.58;;;1.80;99.90;;;;;;5015705;28;20053;-67
2021/12/02 04:47:40;;;;;;;6.20;1.60;;;1.80;99.90;;;;;;4998126;28;20431;-68
2021/12/02 04:50:07;;;;;;;5.18;1.70;;;1.80;99.90;;;;;;5015347;28;20050;-67
2021/12/02 04:52:33;;;;;;;5.90;1.63;;;1.80;99.90;;;;;;5015360;28;20386;-68
2021/12/02 04:54:59;;;;;;;5.53;1.75;;;1.90;99.90;;;;;;5015349;28;20058;-66
2021/12/02 04:57:25;;;;;;;7.90;1.67;;;1.90;99.90;;;;;;4998820;28;20104;-68
2021/12/02 04:59:51;;;;;;;6.22;1.70;;;2.00;99.90;;;;;;4981718;28;20129;-67
2021/12/02 05:02:16;;;;;;;9.88;1.65;;;2.00;99.90;;;;;;4997709;28;20060;-69
2021/12/02 05:04:42;;;;;;;5.53;1.65;;;2.00;99.90;;;;;;4998180;28;20056;-67
2021/12/02 05:07:07;;;;;;;10.52;2.17;;;2.10;99.90;;;;;;5014882;28;20488;-66
2021/12/02 05:09:33;;;;;;;7.47;1.92;;;2.10;99.90;;;;;;4981166;28;20120;-68
2021/12/02 05:11:58;;;;;;;3.63;1.70;;;2.10;99.90;;;;;;4997906;28;20358;-66
2021/12/02 05:14:24;;;;;;;7.38;1.70;;;2.20;99.90;;;;;;4997561;28;20049;-67
2021/12/02 05:16:50;;;;;;;6.63;1.90;;;2.20;99.90;;;;;;4997547;28;20120;-69
2021/12/02 05:19:15;;;;;;;6.30;2.08;;;2.20;99.90;;;;;;4997858;28;20050;-67
2021/12/02 05:21:41;;;;;;;3.90;1.55;;;2.30;99.90;;;;;;4997682;28;20096;-66
2021/12/02 05:24:07;;;;;;;7.10;1.83;;;2.30;99.90;;;;;;4982223;28;20053;-68
2021/12/02 05:26:32;;;;;;;3.72;1.80;;;2.80;99.90;;;;;;5015607;28;20037;-67
2021/12/02 05:28:58;;;;;;;4.60;1.70;;;2.40;99.90;;;;;;5015087;28;20111;-67
2021/12/02 05:31:24;;;;;;;8.40;1.80;;;2.40;99.90;;;;;;5015294;28;20049;-68
2021/12/02 05:33:49;;;;;;;5.20;1.83;;;2.40;99.90;;;;;;5015126;28;20138;-68
2021/12/02 05:36:15;;;;;;;6.45;2.10;;;2.30;99.90;;;;;;5014977;28;20343;-68
2021/12/02 05:38:41;;;;;;;6.97;2.10;;;2.30;99.90;;;;;;5015051;28;20093;-67
2021/12/02 05:41:07;;;;;;;6.47;2.10;;;2.30;99.90;;;;;;4997728;28;20409;-67
2021/12/02 05:43:33;;;;;;;7.32;2.58;;;2.40;99.90;;;;;;4998304;28;20058;-66
2021/12/02 05:45:58;;;;;;;5.53;1.98;;;2.40;99.90;;;;;;4997288;28;20451;-67
2021/12/02 05:48:24;;;;;;;7.45;1.90;;;2.30;99.90;;;;;;4997361;28;20050;-67
2021/12/02 05:50:50;;;;;;;5.03;2.10;;;2.30;99.90;;;;;;4997480;28;20085;-68
2021/12/02 05:53:16;;;;;;;7.90;2.30;;;2.30;99.90;;;;;;4997846;28;20049;-68
2021/12/02 05:55:42;;;;;;;6.82;2.20;;;2.30;99.90;;;;;;4997586;28;20096;-68
2021/12/02 05:58:10;;;;;;;6.97;1.95;;;2.30;99.90;;;;;;5027555;28;20073;-68
2021/12/02 06:00:35;;;;;;;5.70;1.52;;;2.20;99.90;;;;;;5016978;28;20500;-66
2021/12/02 06:03:01;;;;;;;5.63;1.55;;;2.20;99.90;;;;;;5034524;28;20049;-68
2021/12/02 06:05:27;;;;;;;5.25;1.50;;;2.20;99.90;;;;;;5017029;28;20378;-67
2021/12/02 06:07:56;;;;;;;5.88;1.42;;;2.10;99.90;;;;;;5017480;28;20103;-69
2021/12/02 06:10:23;;;;;;;7.13;1.77;;;2.00;99.90;;;;;;5016862;28;20462;-67
2021/12/02 06:12:48;;;;;;;5.07;1.33;;;2.00;99.90;;;;;;5017415;28;20355;-67
2021/12/02 06:15:15;;;;;;;13.93;1.75;;;1.90;99.90;;;;;;5034337;28;20128;-68
2021/12/02 06:17:42;;;;;;;5.28;1.30;;;1.90;99.90;;;;;;5035144;28;20045;-67
2021/12/02 06:20:09;;;;;;;5.22;1.20;;;1.90;99.90;;;;;;5015353;28;20465;-68
2021/12/02 06:22:35;;;;;;;5.55;1.80;;;1.80;99.90;;;;;;5034024;28;20033;-68
2021/12/02 06:27:43;;;;;;;16.25;6.45;;;1.80;99.90;;;;;;5020394;28;20049;-69
2021/12/02 06:30:11;;;;;;;20.63;10.00;;;1.80;99.90;;;;;;5038012;28;20041;-67
2021/12/02 06:32:36;;;;;;;6.57;3.53;;;1.70;99.90;;;;;;5037575;28;20489;-69
2021/12/02 06:35:03;;;;;;;3.83;1.55;;;1.70;99.90;;;;;;5038032;28;20096;-67
2021/12/02 06:37:29;;;;;;;3.60;1.20;;;1.70;99.90;;;;;;5020281;28;20064;-68
2021/12/02 06:39:55;;;;;;;5.07;1.30;;;1.60;99.90;;;;;;5020458;28;20397;-67
2021/12/02 06:42:20;;;;;;;4.53;1.20;;;1.60;99.90;;;;;;5020517;28;20069;-69
2021/12/02 06:44:46;;;;;;;3.72;1.30;;;1.60;99.90;;;;;;5003898;28;20068;-70
2021/12/02 06:47:12;;;;;;;3.20;1.20;;;1.60;99.90;;;;;;5019919;28;20442;-69
2021/12/02 06:49:39;;;;;;;3.28;1.50;;;1.50;99.90;;;;;;5023544;28;20041;-68
2021/12/02 06:52:10;;;;;;;5.18;1.70;;;1.50;99.90;;;;;;5017899;28;20073;-67
2021/12/02 06:54:36;;;;;;;4.28;2.00;;;1.50;99.90;;;;;;5017252;28;20100;-66
2021/12/02 06:57:02;;;;;;;4.15;1.40;;;1.50;99.90;;;;;;5000305;28;20089;-69
2021/12/02 06:59:28;;;;;;;4.95;1.70;;;1.50;99.90;;;;;;5017202;28;20363;-68
2021/12/02 07:01:53;;;;;;;4.38;1.38;;;1.50;99.90;;;;;;5017703;28;20045;-69
2021/12/02 07:04:19;;;;;;;4.80;1.38;;;1.50;99.90;;;;;;5017648;28;20042;-68
2021/12/02 07:06:44;;;;;;;2.67;1.30;;;1.50;99.90;;;;;;5017234;28;20050;-68
2021/12/02 07:09:10;;;;;;;2.97;1.20;;;1.50;99.90;;;;;;4967067;28;20413;-68
2021/12/02 07:11:36;;;;;;;5.95;1.48;;;1.50;99.90;;;;;;5017548;28;20046;-69
2021/12/02 07:14:06;;;;;;;3.40;1.40;;;1.50;99.90;;;;;;5000349;28;20379;-67
2021/12/02 07:16:32;;;;;;;2.92;1.23;;;1.50;99.90;;;;;;5017762;28;20057;-67
2021/12/02 07:18:59;;;;;;;3.58;1.27;;;1.50;99.90;;;;;;5009737;28;20111;-69
2021/12/02 07:21:26;;;;;;;6.07;1.48;;;1.50;99.90;;;;;;5037159;28;20145;-68
2021/12/02 07:23:52;;;;;;;3.60;1.33;;;1.50;99.90;;;;;;5037195;28;20132;-69
2021/12/02 07:26:18;;;;;;;3.92;1.20;;;1.50;99.90;;;;;;5036909;28;20530;-66
2021/12/02 07:28:47;;;;;;;7.20;1.20;;;1.50;99.90;;;;;;5037177;28;20124;-67
2021/12/02 07:31:13;;;;;;;3.50;1.15;;;1.50;99.90;;;;;;5020004;28;20478;-68
2021/12/02 07:33:42;;;;;;;6.05;1.20;;;1.40;99.90;;;;;;5019683;28;20462;-67
2021/12/02 07:36:08;;;;;;;5.18;1.50;;;1.40;99.90;;;;;;5018737;28;20092;-66
2021/12/02 07:38:37;;;;;;;3.88;1.33;;;1.30;99.90;;;;;;5019560;28;20097;-69
2021/12/02 07:41:05;;;;;;;3.78;1.38;;;1.30;99.90;;;;;;5019184;28;20045;-67
2021/12/02 07:43:35;;;;;;;4.00;1.20;;;1.30;99.90;;;;;;5019282;28;20095;-68
2021/12/02 07:46:02;;;;;;;4.10;1.38;;;1.30;99.90;;;;;;5018889;28;20064;-69
2021/12/02 07:48:28;;;;;;;3.80;1.42;;;1.20;99.90;;;;;;5030233;28;20367;-68
2021/12/02 07:50:56;;;;;;;3.75;1.40;;;1.20;99.90;;;;;;4999763;28;20405;-68
2021/12/02 07:53:24;;;;;;;2.95;1.40;;;1.20;99.90;;;;;;4999472;28;20080;-67
2021/12/02 07:55:52;;;;;;;7.50;1.50;;;1.20;99.90;;;;;;4999135;28;20054;-66
2021/12/02 07:58:20;;;;;;;6.00;1.80;;;1.20;99.90;;;;;;4999057;28;20462;-68
2021/12/02 08:00:45;;;;;;;5.47;1.70;;;1.30;99.90;;;;;;5016418;28;20434;-66
2021/12/02 08:03:12;;;;;;;5.80;1.90;;;1.30;99.90;;;;;;4999368;28;20078;-68
2021/12/02 08:05:38;;;;;;;4.53;2.22;;;1.40;99.90;;;;;;4999469;28;20117;-70
2021/12/02 08:08:04;;;;;;;6.88;2.13;;;1.40;99.90;;;;;;4999356;28;20046;-68
2021/12/02 08:10:30;;;;;;;4.03;1.92;;;1.40;99.90;;;;;;4998653;28;20061;-68
2021/12/02 08:12:58;;;;;;;7.88;2.10;;;1.40;99.90;;;;;;4999379;28;20085;-67
2021/12/02 08:15:26;;;;;;;4.78;2.15;;;1.60;99.90;;;;;;4998719;28;20125;-66
2021/12/02 08:17:53;;;;;;;3.50;2.10;;;1.40;99.90;;;;;;5000075;28;20348;-67
2021/12/02 08:20:21;;;;;;;8.85;2.38;;;1.40;99.90;;;;;;5001774;28;20457;-69
2021/12/02 08:22:47;;;;;;;6.85;2.47;;;1.40;99.90;;;;;;5018404;28;20080;-66
2021/12/02 08:25:14;;;;;;;3.60;2.30;;;1.40;99.90;;;;;;5018025;28;20088;-69
2021/12/02 08:27:43;;;;;;;4.40;2.67;;;1.40;99.90;;;;;;5018410;28;20077;-67
2021/12/02 08:30:12;;;;;;;6.25;2.53;;;1.40;99.90;;;;;;5018250;28;20064;-67
2021/12/02 08:32:41;;;;;;;7.00;2.65;;;1.40;99.90;;;;;;5018592;28;20041;-68
2021/12/02 08:35:08;;;;;;;6.03;2.80;;;1.40;99.90;;;;;;5035490;28;20049;-68
2021/12/02 08:37:36;;;;;;;4.88;2.50;;;1.40;99.90;;;;;;5018915;28;20053;-68
2021/12/02 08:40:03;;;;;;;4.75;2.90;;;1.40;99.90;;;;;;5018526;28;20045;-67
2021/12/02 08:42:32;;;;;;;5.65;2.65;;;1.40;99.90;;;;;;5018584;28;20041;-69
2021/12/02 08:44:58;;;;;;;8.60;3.65;;;1.40;99.90;;;;;;5018296;28;20057;-68
2021/12/02 08:47:25;;;;;;;8.38;3.25;;;1.50;99.90;;;;;;5034734;28;20038;-66
2021/12/02 08:49:54;;;;;;;8.00;3.60;;;1.50;99.90;;;;;;5000268;28;20398;-67
2021/12/02 08:52:24;;;;;;;8.73;3.13;;;1.50;99.90;;;;;;5015398;28;20037;-67
2021/12/02 08:54:52;;;;;;;8.77;4.43;;;1.60;99.90;;;;;;4981101;28;20085;-68
2021/12/02 08:57:19;;;;;;;6.78;3.40;;;1.60;99.90;;;;;;5015996;28;20129;-67
2021/12/02 08:59:45;;;;;;;7.72;3.45;;;1.60;99.90;;;;;;5015043;28;20100;-68
2021/12/02 09:02:11;;;;;;;5.95;3.10;;;1.70;99.90;;;;;;4997887;28;20534;-69
2021/12/02 09:04:37;;;;;;;6.18;3.40;;;1.70;99.90;;;;;;4998805;28;20406;-66
2021/12/02 09:07:03;;;;;;;8.73;3.65;;;1.80;99.90;;;;;;4998267;28;20041;-69
2021/12/02 09:09:28;;;;;;;7.55;3.42;;;1.90;99.90;;;;;;4998321;28;20057;-69
2021/12/02 09:11:55;;;;;;;18.05;4.40;;;2.00;99.90;;;;;;5015489;28;20133;-69
2021/12/02 09:14:21;;;;;;;7.72;3.90;;;2.10;99.90;;;;;;5015500;28;20100;-68
2021/12/02 09:16:48;;;;;;;6.38;2.85;;;2.30;99.90;;;;;;5015444;28;20415;-67
2021/12/02 09:19:14;;;;;;;12.35;3.90;;;2.40;99.90;;;;;;5008990;28;20081;-67
2021/12/02 09:21:40;;;;;;;5.07;2.92;;;2.50;99.90;;;;;;5034745;28;20088;-70
2021/12/02 09:24:05;;;;;;;5.82;2.83;;;2.60;99.90;;;;;;5017731;28;20119;-68
2021/12/02 09:26:31;;;;;;;7.00;2.58;;;2.70;99.90;;;;;;5034970;28;20037;-67
2021/12/02 09:28:58;;;;;;;7.72;3.00;;;2.80;99.90;;;;;;4983879;28;20056;-66
2021/12/02 09:31:24;;;;;;;5.93;2.50;;;2.80;99.90;;;;;;5034951;28;20427;-69
2021/12/02 09:33:50;;;;;;;5.32;2.50;;;2.90;99.90;;;;;;5034629;28;20049;-71
2021/12/02 09:36:17;;;;;;;7.38;2.63;;;2.90;99.90;;;;;;5017347;28;20045;-67
2021/12/02 09:38:44;;;;;;;9.52;2.42;;;2.90;99.90;;;;;;5034495;28;20071;-68
2021/12/02 09:41:10;;;;;;;7.18;2.20;;;3.00;99.90;;;;;;5017400;28;20480;-69
2021/12/02 09:43:37;;;;;;;4.00;1.90;;;3.00;99.90;;;;;;5017537;28;20049;-68
2021/12/02 09:46:02;;;;;;;6.05;1.80;;;3.00;99.90;;;;;;5017274;28;20057;-67
2021/12/02 09:48:29;;;;;;;6.28;1.85;;;3.10;99.90;;;;;;5032310;28;20056;-68
2021/12/02 09:51:05;;;;;;;4.20;1.80;;;3.10;99.90;;;;;;5017132;28;20056;-67
2021/12/02 09:53:37;;;;;;;10.55;2.13;;;3.20;99.90;;;;;;5034581;28;20049;-68
2021/12/02 09:56:16;;;;;;;4.38;2.10;;;3.30;99.90;;;;;;5017019;28;20200;-67
2021/12/02 09:58:42;;;;;;;6.97;2.45;;;3.40;99.90;;;;;;5017753;28;20060;-69
2021/12/02 10:01:10;;;;;;;5.50;2.33;;;3.50;99.90;;;;;;5038390;28;20045;-67
2021/12/02 10:03:39;;;;;;;6.75;1.95;;;3.70;99.90;;;;;;5021112;28;20453;-67
2021/12/02 10:06:09;;;;;;;4.03;1.83;;;4.10;99.90;;;;;;5021545;28;20450;-68
2021/12/02 10:08:44;;;;;;;2.67;1.10;;;4.00;99.90;;;;;;5021556;28;20144;-68
2021/12/02 10:11:14;;;;;;;4.07;1.20;;;4.00;99.90;;;;;;5021101;28;20144;-67
2021/12/02 10:13:46;;;;;;;6.75;1.30;;;3.90;99.90;;;;;;5005329;28;20060;-68
2021/12/02 10:16:27;;;;;;;6.38;2.05;;;3.80;99.90;;;;;;5038065;28;20479;-67
2021/12/02 10:21:40;;;;;;;6.45;1.90;;;3.40;99.90;;;;;;5018585;28;20078;-68
2021/12/02 10:24:09;;;;;;;5.72;2.15;;;3.10;99.90;;;;;;5001474;28;20045;-68
2021/12/02 10:27:00;;;;;;;5.65;2.03;;;2.80;99.90;;;;;;5018400;28;20049;-66
2021/12/02 10:29:31;;;;;;;5.28;2.10;;;2.40;99.90;;;;;;5018277;28;20046;-68
2021/12/02 10:32:25;;;;;;;19.63;2.55;;;2.20;99.90;;;;;;5000673;28;20049;-68
2021/12/02 10:35:06;;;;;;;5.18;2.05;;;2.10;99.90;;;;;;4998553;28;20132;-68
2021/12/02 10:37:34;;;;;;;5.32;2.00;;;2.00;99.90;;;;;;5018283;28;20046;-71
2021/12/02 10:40:08;;;;;;;6.63;2.95;;;2.00;99.90;;;;;;5000628;28;20450;-70
2021/12/02 10:42:38;;;;;;;9.68;4.40;;;1.90;99.90;;;;;;5001529;28;20584;-70
2021/12/02 10:45:17;;;;;;;4.80;3.22;;;2.00;99.90;;;;;;4984994;28;20046;-67
2021/12/02 10:47:49;;;;;;;5.15;2.78;;;1.90;99.90;;;;;;5004323;28;20099;-70
2021/12/02 10:50:14;;;;;;;4.78;2.50;;;1.90;99.90;;;;;;5020360;28;20063;-69
2021/12/02 10:52:40;;;;;;;4.55;2.70;;;2.30;99.90;;;;;;5037737;28;20472;-70
2021/12/02 10:55:16;;;;;;;3.72;2.30;;;2.00;99.90;;;;;;5019807;28;20118;-69
2021/12/02 10:57:50;;;;;;;11.32;7.10;;;2.00;99.90;;;;;;5020375;28;20497;-68
2021/12/02 11:00:22;;;;;;;8.57;5.07;;;2.40;99.90;;;;;;5020170;28;20451;-69
2021/12/02 11:02:53;;;;;;;9.07;5.63;;;2.10;99.90;;;;;;5037388;28;20073;-69
2021/12/02 11:05:26;;;;;;;8.65;5.85;;;2.10;99.90;;;;;;5019571;28;20128;-69
2021/12/02 11:07:55;;;;;;;6.78;4.47;;;2.10;99.90;;;;;;5019820;28;20128;-69
2021/12/02 11:10:21;;;;;;;9.00;6.20;;;2.10;99.90;;;;;;5019254;28;20049;-70
2021/12/02 11:12:49;;;;;;;9.05;6.10;;;2.20;99.90;;;;;;5019771;28;20064;-70
2021/12/02 11:15:20;;;;;;;8.88;5.28;;;2.20;99.90;;;;;;5019679;28;20045;-69
2021/12/02 11:17:59;;;;;;;5.50;3.33;;;2.20;99.90;;;;;;5016693;28;20045;-69
2021/12/02 11:20:26;;;;;;;6.03;3.55;;;2.20;99.90;;;;;;5032336;28;20340;-69
2021/12/02 11:22:58;;;;;;;6.20;3.38;;;2.20;99.90;;;;;;5019250;28;20056;-70
2021/12/02 11:25:24;;;;;;;6.97;3.90;;;2.10;99.90;;;;;;5037328;28;20118;-68
2021/12/02 11:27:51;;;;;;;5.68;3.28;;;2.10;99.90;;;;;;5019458;28;20041;-68
2021/12/02 11:30:31;;;;;;;4.13;2.47;;;2.10;99.90;;;;;;5019416;28;20052;-68
2021/12/02 11:33:01;;;;;;;10.32;7.20;;;2.00;99.90;;;;;;5026177;28;20084;-69
2021/12/02 11:35:28;;;;;;;4.15;2.25;;;1.90;99.90;;;;;;5016419;28;20054;-69
2021/12/02 11:37:56;;;;;;;9.15;5.65;;;2.00;99.90;;;;;;4982706;28;20089;-68
2021/12/02 11:40:25;;;;;;;14.50;9.43;;;2.00;99.90;;;;;;4999727;28;20052;-69
2021/12/02 11:42:51;;;;;;;5.35;3.55;;;2.00;99.90;;;;;;4999507;28;20046;-69
2021/12/02 11:45:20;;;;;;;6.25;3.10;;;2.10;99.90;;;;;;5017088;28;20061;-70
2021/12/02 11:47:47;;;;;;;4.15;2.53;;;2.30;99.90;;;;;;5000638;28;20376;-69
2021/12/02 11:50:15;;;;;;;5.53;3.22;;;2.40;99.90;;;;;;4999185;28;20463;-68
2021/12/02 11:52:41;;;;;;;5.53;4.07;;;2.50;99.90;;;;;;5016884;28;20151;-69
2021/12/02 11:55:15;;;;;;;6.55;3.10;;;2.60;99.90;;;;;;4999414;28;20054;-69
2021/12/02 11:57:41;;;;;;;23.20;4.65;;;2.80;99.90;;;;;;4999445;28;20050;-68
2021/12/02 12:00:14;;;;;;;10.45;3.13;;;2.90;99.90;;;;;;4999003;28;20454;-68
2021/12/02 12:03:09;;;;;;;4.82;2.38;;;2.90;99.90;;;;;;5016519;28;20054;-68
2021/12/02 12:06:02;;;;;;;7.47;2.20;;;2.90;99.90;;;;;;4989260;28;20054;-67
2021/12/02 12:08:32;;;;;;;3.83;2.40;;;2.80;99.90;;;;;;4999614;28;20062;-69
2021/12/02 12:11:33;;;;;;;4.95;2.50;;;2.70;99.90;;;;;;4998860;28;20089;-68
2021/12/02 12:14:06;;;;;;;5.85;2.40;;;2.70;99.90;;;;;;5016582;28;20111;-68
2021/12/02 12:16:41;;;;;;;4.18;2.22;;;2.70;99.90;;;;;;5017430;28;20347;-68
2021/12/02 12:19:22;;;;;;;7.15;2.50;;;2.70;99.90;;;;;;4998996;28;20447;-67
2021/12/02 12:22:05;;;;;;;6.72;2.55;;;2.70;99.90;;;;;;5016358;28;20057;-70
2021/12/02 12:24:47;;;;;;;4.80;2.57;;;2.70;99.90;;;;;;4998792;28;20046;-67
2021/12/02 12:27:18;;;;;;;12.13;2.83;;;2.70;99.90;;;;;;5015884;28;20061;-68
2021/12/02 12:30:11;;;;;;;11.45;9.05;;;2.70;99.90;;;;;;4999055;28;20034;-67
2021/12/02 12:38:22;;;;;;;15.95;10.23;;;2.90;99.90;;;;;;4999131;28;20133;-69
2021/12/02 12:40:51;;;;;;;5.38;2.70;;;3.00;99.90;;;;;;5015814;28;20046;-68
2021/12/02 12:43:26;;;;;;;4.43;2.10;;;3.00;99.90;;;;;;4998571;28;20054;-68
2021/12/02 12:46:22;;;;;;;7.43;4.22;;;3.00;99.90;;;;;;5005282;28;20490;-69
2021/12/02 12:48:49;;;;;;;7.60;4.18;;;3.10;99.90;;;;;;5016496;28;20085;-67
2021/12/02 12:51:33;;;;;;;5.55;3.35;;;3.10;99.90;;;;;;5035381;28;20455;-67
2021/12/02 12:54:03;;;;;;;7.00;4.30;;;2.80;99.90;;;;;;5017801;28;20041;-69
2021/12/02 12:56:33;;;;;;;2.47;1.30;;;2.80;99.90;;;;;;5035671;28;20348;-68
2021/12/02 12:59:03;;;;;;;4.47;2.30;;;2.70;99.90;;;;;;5017524;28;20049;-69
2021/12/02 13:01:29;;;;;;;2.25;1.50;;;2.70;99.90;;;;;;5016693;28;20128;-67
2021/12/02 13:04:08;;;;;;;2.20;1.30;;;2.70;99.90;;;;;;5018003;28;20053;-68
2021/12/02 13:07:09;;;;;;;2.10;1.20;;;2.70;99.90;;;;;;5017659;28;20041;-67
2021/12/02 13:09:52;;;;;;;3.65;1.20;;;2.60;99.90;;;;;;5002743;28;20387;-67
2021/12/02 13:12:20;;;;;;;2.35;1.30;;;2.50;99.90;;;;;;5017971;28;20053;-67
2021/12/02 13:14:50;;;;;;;2.17;1.10;;;2.50;99.90;;;;;;5017692;28;20084;-67
2021/12/02 13:17:34;;;;;;;1.90;1.23;;;2.40;99.90;;;;;;5034920;28;20057;-67
2021/12/02 13:19:59;;;;;;;2.40;1.23;;;2.50;99.90;;;;;;5017454;28;20051;-68